Portada
METAR-TAF:

METAR-TAF

Aeropuertos :

Aeropuerto Internacional de Dakar-Yoff/Léopold Sédar Senghor

Dakar, Senegal

latitud: 14-44N, longitud: 017-30W, altitud: 27 m

Observación

El informe se hizo hace 1 hora y 2 minutos, a las 18:00 UTC
Viento 8 kt del oeste
Temperatura 28°C
Humedad 70%
Presión 1010 hPa
Visibilidad 10 km o más
Escasas nubes a una altura de 1300 ft
Nubes dispersas a una altura de 13000 ft

METAR: GOOY 211800Z 28008KT 9999 FEW013 SCT130 28/22 Q1010

Hora: 19:02 (19:02 UTC)

Pronóstico

El informe se hizo hace 1 hora y 32 minutos, a las 17:30 UTC
Pronóstico válido del 21 a las 18 UTC al 22 a las 24 UTC
Viento 8 kt del oeste-noroeste
Visibilidad 10 km o más
Nubes dispersas a una altura de 1300 ft

TAF: GOOY 211730Z 2118/2224 30008KT 9999 SCT013

Observaciones y pronósticos meteorológicos de más de 4000 aeropuertos (mensajes METAR y TAF).

Los puntos amarillos y rojos representan las estaciones disponibles.

Ponga el ratón en el punto deseado para ver el nombre de la estación.

Haga clic para ver las observaciones y los pronósticos meteorológicos.

Para cambiar el mapa : haga clic en los botones verdes con una cruz de color negro para hacer un zoom, en el botón verde con un guión para alejar o en las flechas verdes para mapas adyacentes.


METAR-TAF: